Algoma, Mississippi
Current Conditions -  °F | °C
As of 11:53 AM on Friday 31 Oct 2014 (Local Time) from KTUP Reporting Station
Clear Clear  
Wind Chill: 17°   Ceiling: Unl
Heat Index: 17°   Visibility: 10mi
Dew Point:   Wind: 15mph
Humidity: 60%   Direction: 10°N
Pressure: 30.04"   Gusts: NA
Location:  34.18°N, 89.03°W
Report Text: KTUP 311653Z 01013KT 10SM CLR 17/09 A3004 RMK AO2 SLP172 T01670089
Loading
Personal Weather Stations






























Interactive Weather Map
Tropical Storm Tracking
New forecast layout! Learn more

10-Day Weather Forecast

Advertisements
Track Severe Weather on mobile